createdAt,value
2019-05-07T00:00:50.377Z,12.7
2019-05-07T00:02:49.742Z,12.7
2019-05-07T00:04:52.221Z,12.2
2019-05-07T00:06:49.495Z,13.0
2019-05-07T00:08:49.589Z,13.0
2019-05-07T00:10:52.719Z,11.0
2019-05-07T00:12:51.481Z,11.0
2019-05-07T00:14:58.856Z,15.8
2019-05-07T00:16:50.221Z,11.7
2019-05-07T00:18:52.312Z,11.5
2019-05-07T00:20:49.737Z,11.5
2019-05-07T00:22:49.834Z,11.2
2019-05-07T00:24:51.907Z,12.0
2019-05-07T00:26:50.374Z,12.6
2019-05-07T00:28:52.419Z,12.3
2019-05-07T00:30:51.893Z,12.3
2019-05-07T00:32:50.380Z,11.6
2019-05-07T00:34:50.271Z,12.2
2019-05-07T00:36:49.477Z,11.9
2019-05-07T00:38:52.038Z,13.0
2019-05-07T00:40:52.004Z,13.0
2019-05-07T00:42:49.897Z,15.2
2019-05-07T00:44:49.951Z,12.2
2019-05-07T00:46:52.000Z,11.6
2019-05-07T00:48:49.532Z,12.9
2019-05-07T00:50:49.607Z,12.9
2019-05-07T00:52:49.662Z,14.0
2019-05-07T00:54:50.185Z,12.1
2019-05-07T00:56:52.091Z,11.8
2019-05-07T00:58:52.446Z,11.8
2019-05-07T01:00:49.996Z,11.5
2019-05-07T01:02:52.297Z,11.8
2019-05-07T01:04:50.096Z,11.4
2019-05-07T01:06:50.321Z,11.4
2019-05-07T01:08:49.812Z,11.4
2019-05-07T01:10:52.551Z,10.9
2019-05-07T01:12:50.113Z,12.5
2019-05-07T01:14:52.172Z,10.6
2019-05-07T01:16:50.087Z,10.6
2019-05-07T01:18:49.971Z,12.7
2019-05-07T01:20:50.021Z,12.7
2019-05-07T01:22:50.104Z,12.8
2019-05-07T01:24:51.906Z,11.6
2019-05-07T01:26:49.758Z,11.3
2019-05-07T01:28:49.773Z,12.6
2019-05-07T01:30:49.825Z,12.6
2019-05-07T01:32:49.913Z,13.1
2019-05-07T01:34:52.247Z,13.1
2019-05-07T01:36:49.664Z,12.5
2019-05-07T01:38:52.214Z,12.5
2019-05-07T01:40:52.062Z,11.4
2019-05-07T01:42:50.098Z,11.6
2019-05-07T01:44:49.602Z,12.0
2019-05-07T01:46:49.750Z,12.4
2019-05-07T01:48:53.418Z,12.4
2019-05-07T01:50:49.514Z,13.7
2019-05-07T01:52:49.581Z,12.2
2019-05-07T01:54:52.066Z,11.2
2019-05-07T01:56:49.536Z,11.9
2019-05-07T01:58:50.011Z,11.9
2019-05-07T02:00:50.335Z,12.8
2019-05-07T02:02:51.934Z,13.1
2019-05-07T02:04:52.145Z,12.0
2019-05-07T02:06:50.434Z,12.0
2019-05-07T02:08:49.473Z,12.7
2019-05-07T02:10:49.860Z,12.8
2019-05-07T02:12:50.271Z,14.7
2019-05-07T02:14:49.634Z,14.7
2019-05-07T02:16:49.718Z,13.0
2019-05-07T02:18:49.786Z,13.2
2019-05-07T02:20:49.808Z,14.3
2019-05-07T02:22:50.043Z,13.2
2019-05-07T02:24:52.159Z,13.8
2019-05-07T02:26:49.649Z,13.8
2019-05-07T02:28:51.822Z,15.0
2019-05-07T02:30:53.284Z,14.7
2019-05-07T02:32:49.705Z,14.0
2019-05-07T02:34:50.140Z,15.1
2019-05-07T02:36:49.452Z,15.1
2019-05-07T02:38:49.464Z,14.2
2019-05-07T02:40:53.249Z,14.1
2019-05-07T02:42:49.755Z,12.5
2019-05-07T02:44:52.915Z,12.5
2019-05-07T02:46:52.674Z,14.9
2019-05-07T02:48:50.065Z,12.5
2019-05-07T02:50:49.721Z,13.4
2019-05-07T02:52:53.304Z,14.1
2019-05-07T02:54:49.915Z,14.1
2019-05-07T02:56:50.005Z,12.4
2019-05-07T02:58:49.456Z,13.8
2019-05-07T03:00:53.112Z,13.8
2019-05-07T03:02:49.546Z,13.7
2019-05-07T03:04:49.559Z,13.2
2019-05-07T03:06:50.182Z,12.5
2019-05-07T03:08:53.228Z,14.3
2019-05-07T03:10:52.471Z,13.1
2019-05-07T03:12:50.014Z,15.6
2019-05-07T03:14:53.326Z,15.6
2019-05-07T03:16:53.266Z,13.9
2019-05-07T03:18:52.919Z,14.1
2019-05-07T03:20:49.472Z,15.3
2019-05-07T03:22:49.467Z,13.7
2019-05-07T03:24:52.666Z,13.7
2019-05-07T03:26:53.380Z,14.7
2019-05-07T03:28:53.097Z,16.2
2019-05-07T03:30:50.163Z,14.6
2019-05-07T03:32:55.580Z,14.3
2019-05-07T03:34:50.088Z,14.3
2019-05-07T03:36:55.685Z,16.3
2019-05-07T03:38:49.461Z,19.4
2019-05-07T03:40:52.916Z,14.7
2019-05-07T03:42:53.162Z,14.7
2019-05-07T03:44:49.789Z,16.3
2019-05-07T03:46:57.489Z,16.2
2019-05-07T03:48:52.911Z,15.6
2019-05-07T03:50:52.755Z,16.3
2019-05-07T03:52:50.395Z,16.3
2019-05-07T03:54:50.400Z,16.3
2019-05-07T03:56:52.780Z,14.1
2019-05-07T03:58:52.860Z,14.1
2019-05-07T04:00:53.138Z,14.0
2019-05-07T04:02:52.631Z,14.0
2019-05-07T04:04:52.218Z,14.8
2019-05-07T04:06:53.594Z,15.6
2019-05-07T04:08:52.953Z,15.6
2019-05-07T04:10:53.444Z,13.8
2019-05-07T04:12:53.111Z,13.8
2019-05-07T04:14:49.573Z,15.0
2019-05-07T04:16:49.698Z,13.0
2019-05-07T04:18:52.769Z,16.2
2019-05-07T04:20:53.645Z,14.2
2019-05-07T04:22:53.304Z,14.2
2019-05-07T04:24:52.593Z,13.3
2019-05-07T04:26:49.799Z,13.6
2019-05-07T04:28:49.845Z,13.8
2019-05-07T04:30:53.026Z,13.8
2019-05-07T04:32:52.757Z,13.2
2019-05-07T04:34:49.479Z,15.4
2019-05-07T04:36:52.709Z,17.1
2019-05-07T04:38:49.592Z,12.5
2019-05-07T04:40:50.188Z,12.5
2019-05-07T04:42:49.759Z,13.7
2019-05-07T04:44:49.487Z,13.1
2019-05-07T04:46:52.659Z,12.5
2019-05-07T04:48:52.592Z,12.5
2019-05-07T04:50:50.197Z,14.0
2019-05-07T04:52:50.229Z,14.3
2019-05-07T04:54:52.762Z,15.9
2019-05-07T04:56:52.990Z,27.1
2019-05-07T04:58:53.016Z,14.9
2019-05-07T05:00:50.419Z,14.9
2019-05-07T05:02:52.646Z,14.9
2019-05-07T05:04:49.721Z,13.2
2019-05-07T05:06:52.272Z,13.2
2019-05-07T05:08:53.046Z,14.6
2019-05-07T05:10:49.625Z,14.6
2019-05-07T05:12:49.736Z,14.1
2019-05-07T05:14:51.885Z,12.5
2019-05-07T05:16:49.701Z,11.9
2019-05-07T05:18:51.697Z,11.9
2019-05-07T05:20:51.718Z,11.8
2019-05-07T05:22:49.956Z,13.3
2019-05-07T05:24:49.967Z,11.4
2019-05-07T05:26:52.297Z,11.4
2019-05-07T05:28:49.554Z,15.5
2019-05-07T05:30:49.618Z,14.6
2019-05-07T05:32:51.509Z,12.5
2019-05-07T05:34:49.550Z,15.2
2019-05-07T05:36:49.918Z,15.2
2019-05-07T05:38:49.929Z,14.1
2019-05-07T05:40:51.762Z,21.7
2019-05-07T05:42:51.999Z,13.2
2019-05-07T05:44:49.535Z,13.2
2019-05-07T05:46:51.839Z,13.3
2019-05-07T05:48:51.789Z,13.3
2019-05-07T05:50:50.244Z,11.5
2019-05-07T05:52:51.528Z,14.6
2019-05-07T05:54:50.041Z,14.5
2019-05-07T05:56:51.746Z,15.4
2019-05-07T05:58:52.423Z,15.4
2019-05-07T06:00:49.791Z,11.6
2019-05-07T06:02:52.879Z,11.6
2019-05-07T06:04:49.755Z,11.5
2019-05-07T06:06:49.949Z,17.0
2019-05-07T06:08:51.911Z,17.0
2019-05-07T06:10:51.689Z,12.7
2019-05-07T06:12:49.492Z,12.1
2019-05-07T06:14:50.118Z,15.9
2019-05-07T06:16:52.458Z,15.9
2019-05-07T06:18:49.684Z,14.7
2019-05-07T06:20:52.098Z,18.5
2019-05-07T06:22:52.629Z,12.2
2019-05-07T06:24:51.941Z,12.2
2019-05-07T06:26:52.068Z,10.6
2019-05-07T06:28:51.874Z,12.4
2019-05-07T06:30:49.941Z,11.3
2019-05-07T06:32:52.019Z,12.5
2019-05-07T06:34:52.108Z,11.1
2019-05-07T06:36:49.624Z,11.1
2019-05-07T06:38:49.656Z,11.3
2019-05-07T06:40:51.715Z,12.6
2019-05-07T06:42:52.142Z,12.6
2019-05-07T06:44:51.864Z,11.2
2019-05-07T06:46:50.065Z,14.1
2019-05-07T06:48:49.781Z,17.2
2019-05-07T06:50:51.824Z,14.5
2019-05-07T06:52:51.875Z,11.4
2019-05-07T06:54:52.165Z,11.4
2019-05-07T06:56:49.487Z,12.9
2019-05-07T06:58:49.515Z,11.7
2019-05-07T07:00:49.695Z,11.7
2019-05-07T07:02:52.269Z,12.9
2019-05-07T07:04:51.850Z,12.9
2019-05-07T07:06:52.412Z,14.3
2019-05-07T07:08:49.590Z,11.2
2019-05-07T07:10:51.863Z,12.6
2019-05-07T07:12:50.263Z,14.4
2019-05-07T07:14:51.753Z,14.4
2019-05-07T07:16:50.031Z,10.2
2019-05-07T07:18:52.350Z,10.3
2019-05-07T07:20:49.813Z,10.0
2019-05-07T07:22:52.037Z,10.4
2019-05-07T07:24:50.188Z,10.4
2019-05-07T07:26:52.535Z,11.8
2019-05-07T07:28:52.264Z,12.1
2019-05-07T07:30:49.579Z,12.1
2019-05-07T07:32:51.464Z,11.5
2019-05-07T07:34:50.352Z,11.5
2019-05-07T07:37:03.008Z,9.4
2019-05-07T07:38:52.514Z,8.7
2019-05-07T07:40:49.732Z,11.3
2019-05-07T07:42:51.843Z,10.5
2019-05-07T07:44:51.889Z,10.5
2019-05-07T07:46:50.220Z,10.2
2019-05-07T07:49:04.115Z,15.5
2019-05-07T07:50:49.867Z,11.4
2019-05-07T07:52:52.706Z,8.6
2019-05-07T07:54:50.108Z,8.6
2019-05-07T07:56:53.719Z,14.6
2019-05-07T07:58:49.754Z,12.6
2019-05-07T08:00:52.124Z,12.7
2019-05-07T08:02:50.302Z,12.7
2019-05-07T08:04:52.523Z,9.9
2019-05-07T08:06:51.784Z,9.6
2019-05-07T08:08:50.327Z,11.3
2019-05-07T08:10:51.765Z,12.7
2019-05-07T08:12:50.016Z,12.7
2019-05-07T08:14:51.673Z,11.9
2019-05-07T08:16:50.260Z,13.3
2019-05-07T08:18:51.924Z,9.8
2019-05-07T08:20:51.930Z,9.8
2019-05-07T08:22:50.036Z,9.7
2019-05-07T08:24:51.652Z,10.9
2019-05-07T08:26:51.867Z,10.7
2019-05-07T08:28:52.160Z,13.3
2019-05-07T08:30:52.375Z,13.3
2019-05-07T08:32:49.550Z,9.3
2019-05-07T08:34:51.948Z,9.2
2019-05-07T08:36:52.517Z,9.2
2019-05-07T08:38:51.898Z,9.2
2019-05-07T08:40:51.975Z,9.3
2019-05-07T08:42:52.155Z,11.2
2019-05-07T08:44:51.804Z,10.5
2019-05-07T08:46:52.065Z,10.0
2019-05-07T08:48:50.209Z,11.5
2019-05-07T08:50:49.562Z,11.5
2019-05-07T08:52:49.648Z,14.7
2019-05-07T08:54:51.830Z,11.1
2019-05-07T08:56:50.075Z,12.5
2019-05-07T08:58:49.574Z,12.6
2019-05-07T09:00:49.489Z,12.6
2019-05-07T09:02:49.996Z,10.2
2019-05-07T09:04:49.682Z,12.2
2019-05-07T09:06:51.936Z,12.2
2019-05-07T09:08:50.014Z,12.0
2019-05-07T09:10:52.386Z,12.0
2019-05-07T09:12:49.640Z,12.1
2019-05-07T09:14:49.552Z,12.3
2019-05-07T09:16:49.731Z,14.2
2019-05-07T09:18:49.730Z,14.2
2019-05-07T09:20:49.737Z,9.7
2019-05-07T09:22:51.621Z,9.4
2019-05-07T09:24:49.853Z,9.4
2019-05-07T09:26:52.249Z,10.7
2019-05-07T09:28:52.266Z,10.7
2019-05-07T09:30:52.280Z,9.8
2019-05-07T09:32:51.969Z,9.8
2019-05-07T09:34:51.907Z,10.2
2019-05-07T09:36:51.814Z,8.8
2019-05-07T09:38:56.638Z,8.8
2019-05-07T09:40:49.495Z,11.4
2019-05-07T09:42:52.387Z,8.6
2019-05-07T09:44:49.652Z,11.6
2019-05-07T09:46:51.935Z,9.3
2019-05-07T09:48:52.243Z,9.3
2019-05-07T09:50:50.272Z,9.0
2019-05-07T09:52:51.783Z,8.7
2019-05-07T09:54:52.190Z,8.6
2019-05-07T09:56:49.579Z,7.9
2019-05-07T09:58:49.643Z,7.9
2019-05-07T10:00:49.615Z,9.7
2019-05-07T10:02:49.591Z,7.1
2019-05-07T10:04:52.027Z,7.1
2019-05-07T10:06:51.877Z,7.6
2019-05-07T10:08:50.032Z,7.9
2019-05-07T10:10:52.661Z,8.1
2019-05-07T10:12:52.414Z,7.4
2019-05-07T10:14:49.575Z,7.4
2019-05-07T10:16:51.903Z,7.4
2019-05-07T10:18:52.017Z,7.4
2019-05-07T10:20:51.841Z,7.7
2019-05-07T10:22:51.977Z,7.7
2019-05-07T10:24:52.090Z,7.1
2019-05-07T10:26:49.475Z,7.6
2019-05-07T10:28:49.525Z,7.6
2019-05-07T10:30:49.577Z,9.1
2019-05-07T10:32:52.128Z,9.1
2019-05-07T10:34:52.056Z,8.0
2019-05-07T10:36:49.604Z,8.0
2019-05-07T10:38:51.903Z,6.9
2019-05-07T10:40:50.090Z,7.3
2019-05-07T10:42:51.868Z,7.0
2019-05-07T10:44:52.295Z,7.0
2019-05-07T10:46:49.556Z,8.1
2019-05-07T10:48:50.191Z,7.6
2019-05-07T10:50:51.690Z,7.5
2019-05-07T10:52:49.790Z,8.9
2019-05-07T10:54:57.414Z,8.9
2019-05-07T10:56:51.948Z,8.6
2019-05-07T10:58:49.487Z,8.6
2019-05-07T11:00:49.888Z,9.4
2019-05-07T11:02:51.808Z,9.4
2019-05-07T11:04:50.324Z,14.9
2019-05-07T11:06:52.151Z,7.5
2019-05-07T11:08:51.868Z,8.5
2019-05-07T11:10:52.061Z,8.1
2019-05-07T11:12:51.700Z,8.1
2019-05-07T11:14:51.635Z,6.7
2019-05-07T11:16:51.637Z,9.4
2019-05-07T11:18:51.730Z,8.1
2019-05-07T11:20:50.414Z,6.6
2019-05-07T11:22:49.527Z,6.0
2019-05-07T11:24:52.197Z,6.0
2019-05-07T11:26:49.528Z,6.0
2019-05-07T11:28:49.503Z,6.3
2019-05-07T11:30:49.483Z,6.3
2019-05-07T11:32:49.524Z,6.4
2019-05-07T11:34:52.594Z,6.4
2019-05-07T11:36:49.673Z,8.9
2019-05-07T11:38:49.534Z,9.6
2019-05-07T11:40:51.663Z,9.6
2019-05-07T11:42:51.572Z,6.5
2019-05-07T11:44:52.110Z,6.5
2019-05-07T11:46:52.479Z,6.6
2019-05-07T11:48:49.584Z,8.3
2019-05-07T11:51:00.413Z,8.3
2019-05-07T11:52:51.665Z,7.5
2019-05-07T11:54:49.960Z,7.5
2019-05-07T11:56:49.439Z,5.9
2019-05-07T11:58:51.236Z,6.5
2019-05-07T12:00:49.803Z,6.0
2019-05-07T12:02:51.418Z,6.7
2019-05-07T12:04:49.568Z,6.7
2019-05-07T12:06:51.886Z,6.2
2019-05-07T12:08:51.906Z,6.3
2019-05-07T12:10:51.784Z,6.4
2019-05-07T12:12:51.996Z,6.4
2019-05-07T12:14:51.799Z,12.7
2019-05-07T12:16:50.100Z,10.2
2019-05-07T12:18:50.039Z,6.9
2019-05-07T12:20:53.703Z,8.6
2019-05-07T12:22:52.107Z,8.6
2019-05-07T12:24:51.772Z,6.4
2019-05-07T12:26:52.209Z,7.4
2019-05-07T12:28:52.160Z,6.9
2019-05-07T12:30:51.717Z,7.2
2019-05-07T12:32:51.924Z,7.2
2019-05-07T12:34:49.441Z,6.9
2019-05-07T12:36:49.586Z,6.6
2019-05-07T12:38:49.642Z,6.9
2019-05-07T12:40:49.649Z,6.9
2019-05-07T12:42:49.708Z,6.9
2019-05-07T12:44:51.617Z,6.9
2019-05-07T12:46:49.929Z,8.3
2019-05-07T12:48:52.224Z,8.4
2019-05-07T12:50:52.247Z,8.4
2019-05-07T12:52:49.445Z,10.0
2019-05-07T12:54:49.441Z,10.9
2019-05-07T12:56:49.574Z,7.9
2019-05-07T12:58:51.784Z,6.5
2019-05-07T13:00:51.857Z,6.5
2019-05-07T13:02:52.035Z,7.1
2019-05-07T13:04:49.496Z,6.6
2019-05-07T13:06:51.877Z,6.6
2019-05-07T13:08:49.493Z,6.6
2019-05-07T13:10:51.686Z,5.8
2019-05-07T13:12:49.993Z,6.2
2019-05-07T13:14:49.565Z,6.3
2019-05-07T13:16:52.069Z,6.1
2019-05-07T13:18:52.119Z,6.1
2019-05-07T13:20:51.754Z,7.1
2019-05-07T13:22:50.047Z,9.5
2019-05-07T13:24:50.029Z,8.8
2019-05-07T13:26:51.791Z,8.5
2019-05-07T13:28:50.081Z,8.5
2019-05-07T13:30:49.928Z,6.6
2019-05-07T13:32:52.434Z,6.6
2019-05-07T13:34:51.884Z,6.6
2019-05-07T13:36:51.603Z,7.8
2019-05-07T13:38:51.730Z,7.8
2019-05-07T13:40:49.499Z,6.7
2019-05-07T13:42:49.534Z,8.2
2019-05-07T13:44:51.958Z,6.8
2019-05-07T13:46:50.245Z,6.8
2019-05-07T13:48:49.918Z,6.7
2019-05-07T13:50:49.866Z,7.0
2019-05-07T13:52:50.247Z,6.8
2019-05-07T13:54:52.426Z,6.1
2019-05-07T13:56:49.796Z,6.5
2019-05-07T13:58:52.116Z,6.5
2019-05-07T14:00:50.230Z,7.8
2019-05-07T14:02:52.014Z,7.2
2019-05-07T14:04:49.679Z,7.6
2019-05-07T14:06:49.907Z,7.6
2019-05-07T14:08:51.782Z,8.5
2019-05-07T14:10:51.598Z,24.8
2019-05-07T14:12:51.923Z,6.7
2019-05-07T14:14:52.800Z,6.7
2019-05-07T14:16:52.385Z,6.6
2019-05-07T14:18:50.216Z,6.6
2019-05-07T14:20:49.618Z,6.8
2019-05-07T14:22:51.569Z,7.4
2019-05-07T14:24:49.673Z,7.4
2019-05-07T14:26:49.817Z,6.7
2019-05-07T14:28:52.463Z,6.7
2019-05-07T14:30:49.625Z,6.6
2019-05-07T14:32:49.612Z,6.6
2019-05-07T14:34:53.704Z,6.3
2019-05-07T14:36:50.042Z,6.3
2019-05-07T14:38:51.980Z,7.2
2019-05-07T14:40:51.945Z,7.8
2019-05-07T14:42:52.315Z,7.3
2019-05-07T14:44:49.575Z,11.6
2019-05-07T14:46:51.404Z,11.6
2019-05-07T14:48:52.066Z,13.8
2019-05-07T14:50:50.195Z,11.3
2019-05-07T14:52:52.288Z,7.3
2019-05-07T14:54:50.283Z,7.3
2019-05-07T14:56:51.771Z,7.6
2019-05-07T14:58:51.633Z,7.6
2019-05-07T15:00:51.680Z,6.6
2019-05-07T15:02:49.995Z,8.2
2019-05-07T15:04:49.761Z,8.2
2019-05-07T15:06:51.562Z,12.6
2019-05-07T15:08:52.071Z,8.1
2019-05-07T15:10:52.294Z,8.1
2019-05-07T15:12:49.633Z,7.9
2019-05-07T15:14:50.300Z,16.0
2019-05-07T15:16:49.939Z,16.0
2019-05-07T15:18:49.893Z,13.8
2019-05-07T15:20:49.967Z,9.4
2019-05-07T15:22:52.561Z,9.0
2019-05-07T15:24:49.782Z,9.0
2019-05-07T15:26:49.577Z,11.3
2019-05-07T15:28:49.505Z,6.0
2019-05-07T15:30:49.761Z,6.0
2019-05-07T15:32:52.106Z,10.1
2019-05-07T15:34:49.631Z,10.1
2019-05-07T15:36:49.677Z,6.7
2019-05-07T15:38:49.743Z,7.2
2019-05-07T15:40:51.880Z,9.0
2019-05-07T15:42:50.065Z,6.2
2019-05-07T15:44:49.448Z,6.2
2019-05-07T15:46:51.790Z,8.6
2019-05-07T15:48:50.132Z,6.7
2019-05-07T15:50:51.849Z,8.7
2019-05-07T15:52:57.904Z,8.7
2019-05-07T15:54:52.083Z,9.5
2019-05-07T15:56:49.467Z,7.9
2019-05-07T15:58:51.610Z,12.8
2019-05-07T16:00:51.612Z,7.1
2019-05-07T16:02:53.330Z,7.1
2019-05-07T16:04:49.531Z,7.0
2019-05-07T16:06:49.762Z,6.3
2019-05-07T16:08:49.766Z,7.5
2019-05-07T16:10:49.815Z,7.8
2019-05-07T16:12:49.857Z,7.8
2019-05-07T16:14:49.849Z,6.2
2019-05-07T16:16:51.395Z,7.3
2019-05-07T16:18:51.872Z,8.0
2019-05-07T16:20:49.440Z,8.0
2019-05-07T16:22:49.430Z,8.4
2019-05-07T16:24:50.362Z,6.2
2019-05-07T16:26:49.537Z,7.3
2019-05-07T16:28:49.802Z,5.9
2019-05-07T16:30:51.937Z,5.9
2019-05-07T16:32:53.252Z,6.7
2019-05-07T16:34:49.766Z,6.5
2019-05-07T16:36:49.878Z,6.2
2019-05-07T16:38:49.965Z,5.7
2019-05-07T16:40:49.688Z,5.7
2019-05-07T16:42:52.358Z,6.9
2019-05-07T16:44:49.465Z,6.9
2019-05-07T16:46:49.641Z,6.5
2019-05-07T16:48:49.659Z,6.5
2019-05-07T16:50:49.614Z,6.2
2019-05-07T16:52:52.202Z,6.0
2019-05-07T16:54:51.810Z,6.0
2019-05-07T16:56:49.462Z,7.9
2019-05-07T16:58:49.825Z,6.6
2019-05-07T17:00:50.158Z,6.6
2019-05-07T17:02:51.629Z,6.7
2019-05-07T17:04:51.646Z,9.4
2019-05-07T17:06:51.887Z,5.6
2019-05-07T17:08:51.647Z,5.6
2019-05-07T17:10:49.702Z,9.6
2019-05-07T17:12:49.745Z,6.2
2019-05-07T17:14:51.788Z,6.0
2019-05-07T17:16:51.665Z,6.0
2019-05-07T17:18:51.400Z,5.6
2019-05-07T17:20:51.861Z,8.1
2019-05-07T17:22:51.916Z,8.1
2019-05-07T17:24:51.908Z,6.6
2019-05-07T17:26:51.745Z,6.6
2019-05-07T17:28:51.887Z,5.2
2019-05-07T17:30:52.225Z,5.2
2019-05-07T17:32:49.512Z,5.2
2019-05-07T17:34:49.842Z,5.1
2019-05-07T17:36:51.972Z,5.1
2019-05-07T17:38:49.485Z,6.1
2019-05-07T17:40:51.950Z,6.4
2019-05-07T17:42:49.451Z,6.0
2019-05-07T17:44:49.488Z,5.2
2019-05-07T17:46:51.750Z,5.2
2019-05-07T17:48:51.820Z,6.3
2019-05-07T17:50:49.596Z,5.7
2019-05-07T17:52:49.593Z,6.7
2019-05-07T17:54:49.674Z,7.3
2019-05-07T17:56:49.764Z,5.6
2019-05-07T17:58:51.614Z,5.6
2019-05-07T18:00:50.192Z,6.4
2019-05-07T18:02:51.644Z,7.2
2019-05-07T18:04:52.075Z,7.6
2019-05-07T18:06:52.023Z,7.2
2019-05-07T18:08:51.969Z,7.2
2019-05-07T18:10:50.018Z,5.6
2019-05-07T18:12:51.784Z,5.6
2019-05-07T18:14:49.744Z,4.8
2019-05-07T18:16:49.917Z,4.8
2019-05-07T18:18:51.895Z,7.7
2019-05-07T18:20:50.005Z,7.8
2019-05-07T18:22:52.027Z,7.8
2019-05-07T18:24:50.146Z,5.8
2019-05-07T18:26:50.200Z,6.6
2019-05-07T18:28:52.193Z,6.6
2019-05-07T18:30:50.386Z,6.0
2019-05-07T18:32:51.961Z,6.5
2019-05-07T18:34:51.783Z,5.9
2019-05-07T18:36:50.013Z,5.9
2019-05-07T18:38:49.705Z,5.7
2019-05-07T18:40:49.768Z,6.0
2019-05-07T18:42:49.761Z,5.8
2019-05-07T18:44:52.261Z,6.9
2019-05-07T18:46:49.581Z,6.9
2019-05-07T18:48:51.683Z,8.5
2019-05-07T18:50:51.961Z,8.5
2019-05-07T18:52:52.196Z,6.6
2019-05-07T18:54:49.432Z,6.1
2019-05-07T18:56:50.079Z,6.1
2019-05-07T18:58:52.022Z,7.1
2019-05-07T19:00:51.889Z,7.7
2019-05-07T19:02:52.188Z,8.9
2019-05-07T19:04:51.784Z,8.9
2019-05-07T19:06:51.724Z,8.3
2019-05-07T19:08:49.900Z,6.9
2019-05-07T19:10:52.020Z,7.6
2019-05-07T19:12:50.215Z,7.9
2019-05-07T19:14:51.663Z,7.9
2019-05-07T19:16:49.843Z,7.4
2019-05-07T19:18:49.490Z,8.1
2019-05-07T19:20:49.497Z,7.3
2019-05-07T19:22:51.708Z,7.3
2019-05-07T19:24:52.428Z,10.0
2019-05-07T19:26:49.920Z,8.5
2019-05-07T19:28:49.676Z,9.6
2019-05-07T19:30:49.683Z,8.2
2019-05-07T19:32:51.933Z,8.2
2019-05-07T19:34:49.496Z,7.7
2019-05-07T19:36:51.739Z,7.9
2019-05-07T19:38:52.319Z,7.5
2019-05-07T19:40:49.651Z,7.6
2019-05-07T19:42:51.757Z,9.5
2019-05-07T19:44:51.804Z,9.5
2019-05-07T19:46:52.219Z,8.8
2019-05-07T19:48:51.492Z,8.8
2019-05-07T19:50:50.117Z,9.0
2019-05-07T19:52:51.998Z,9.0
2019-05-07T19:54:58.674Z,7.9
2019-05-07T19:56:51.880Z,10.7
2019-05-07T19:58:52.009Z,9.0
2019-05-07T20:00:49.765Z,7.8
2019-05-07T20:02:49.709Z,7.8
2019-05-07T20:04:49.681Z,8.2
2019-05-07T20:06:52.235Z,8.6
2019-05-07T20:08:52.752Z,7.8
2019-05-07T20:10:51.861Z,8.9
2019-05-07T20:12:52.059Z,8.9
2019-05-07T20:14:51.704Z,8.1
2019-05-07T20:16:49.947Z,10.5
2019-05-07T20:18:52.160Z,9.5
2019-05-07T20:20:49.662Z,8.9
2019-05-07T20:22:51.668Z,8.9
2019-05-07T20:24:49.867Z,8.9
2019-05-07T20:26:49.706Z,8.9
2019-05-07T20:28:49.672Z,10.2
2019-05-07T20:30:49.665Z,10.2
2019-05-07T20:32:49.628Z,10.9
2019-05-07T20:34:51.818Z,9.4
2019-05-07T20:36:51.811Z,12.0
2019-05-07T20:38:51.548Z,9.4
2019-05-07T20:40:52.099Z,9.4
2019-05-07T20:42:52.281Z,10.1
2019-05-07T20:44:49.466Z,11.0
2019-05-07T20:46:50.183Z,8.8
2019-05-07T20:48:50.136Z,8.8
2019-05-07T20:50:49.553Z,9.8
2019-05-07T20:52:51.922Z,10.0
2019-05-07T20:54:52.246Z,9.2
2019-05-07T20:56:51.738Z,11.1
2019-05-07T20:58:51.830Z,11.1
2019-05-07T21:00:50.071Z,9.8
2019-05-07T21:02:49.586Z,8.3
2019-05-07T21:04:51.385Z,8.2
2019-05-07T21:06:52.283Z,8.9
2019-05-07T21:08:49.570Z,9.3
2019-05-07T21:10:49.600Z,9.3
2019-05-07T21:12:51.285Z,9.1
2019-05-07T21:14:49.812Z,9.6
2019-05-07T21:16:51.657Z,12.7
2019-05-07T21:18:49.970Z,12.7
2019-05-07T21:20:49.572Z,9.0
2019-05-07T21:22:51.707Z,9.9
2019-05-07T21:24:50.028Z,10.4
2019-05-07T21:26:50.183Z,10.4
2019-05-07T21:28:49.851Z,9.6
2019-05-07T21:30:51.838Z,8.6
2019-05-07T21:32:51.726Z,9.8
2019-05-07T21:34:50.087Z,8.8
2019-05-07T21:36:49.755Z,9.8
2019-05-07T21:38:51.782Z,9.8
2019-05-07T21:40:50.021Z,9.1
2019-05-07T21:42:52.005Z,9.4
2019-05-07T21:44:52.400Z,9.1
2019-05-07T21:46:51.798Z,9.1
2019-05-07T21:48:51.767Z,11.2
2019-05-07T21:50:51.775Z,11.2
2019-05-07T21:52:51.399Z,8.9
2019-05-07T21:54:49.974Z,9.3
2019-05-07T21:56:49.467Z,9.3
2019-05-07T21:58:49.469Z,8.9
2019-05-07T22:00:49.598Z,9.8
2019-05-07T22:02:50.004Z,9.5
2019-05-07T22:04:49.935Z,9.5
2019-05-07T22:06:52.310Z,10.0
2019-05-07T22:08:52.513Z,10.0
2019-05-07T22:10:49.905Z,9.5
2019-05-07T22:12:51.995Z,10.1
2019-05-07T22:14:49.682Z,10.1
2019-05-07T22:16:49.797Z,10.4
2019-05-07T22:18:51.960Z,10.4
2019-05-07T22:20:52.174Z,11.0
2019-05-07T22:22:52.108Z,8.8
2019-05-07T22:24:50.200Z,8.8
2019-05-07T22:26:49.956Z,8.8
2019-05-07T22:28:53.636Z,8.8
2019-05-07T22:30:52.612Z,9.5
2019-05-07T22:32:49.749Z,9.7
2019-05-07T22:34:52.006Z,9.7
2019-05-07T22:36:52.074Z,9.7
2019-05-07T22:38:52.381Z,9.7
2019-05-07T22:40:49.804Z,11.2
2019-05-07T22:42:49.872Z,9.8
2019-05-07T22:44:49.891Z,9.8
2019-05-07T22:46:50.076Z,11.0
2019-05-07T22:48:49.679Z,11.0
2019-05-07T22:50:51.718Z,9.6
2019-05-07T22:52:49.902Z,11.0
2019-05-07T22:54:50.222Z,9.9
2019-05-07T22:56:52.269Z,9.9
2019-05-07T22:58:50.037Z,9.6
2019-05-07T23:00:50.040Z,11.0
2019-05-07T23:02:51.677Z,11.0
2019-05-07T23:04:52.058Z,11.0
2019-05-07T23:06:52.311Z,10.3
2019-05-07T23:08:50.036Z,9.9
2019-05-07T23:10:52.425Z,10.2
2019-05-07T23:12:49.629Z,10.3
2019-05-07T23:14:51.388Z,10.3
2019-05-07T23:16:49.791Z,10.2
2019-05-07T23:18:50.350Z,10.7
2019-05-07T23:20:52.157Z,10.1
2019-05-07T23:22:51.529Z,10.1
2019-05-07T23:24:51.966Z,11.4
2019-05-07T23:26:50.559Z,10.1
2019-05-07T23:28:51.680Z,10.5
2019-05-07T23:30:51.813Z,10.5
2019-05-07T23:32:50.034Z,10.1
2019-05-07T23:34:49.755Z,10.1
2019-05-07T23:36:49.963Z,10.5
2019-05-07T23:38:51.777Z,10.4
2019-05-07T23:40:52.387Z,11.5
2019-05-07T23:42:52.038Z,11.5
2019-05-07T23:44:52.186Z,11.0
2019-05-07T23:46:51.759Z,11.2
2019-05-07T23:48:51.609Z,11.2
2019-05-07T23:50:52.296Z,11.3
2019-05-07T23:52:49.690Z,12.6
2019-05-07T23:54:51.925Z,12.6
2019-05-07T23:57:02.651Z,10.4
2019-05-07T23:58:50.079Z,10.8
